Time;durP1;ratioP1;P1;durP2;ratioP2;P2;SDS_P1;SDS_P2;PMS_P1;PMS_P2;Temp;Humidity;BMP_temperature;BMP_pressure;BME280_temperature;BME280_humidity;BME280_pressure;Samples;Min_cycle;Max_cycle;Signal;HPM_P1;HPM_P2
2021/03/24 00:01:56;;;;;;;;;;;5.20;99.90;;;;;;5094743;28;19931;-67
2021/03/24 00:04:22;;;;;;;;;;;5.10;99.90;;;;;;5094623;28;19931;-69
2021/03/24 00:06:48;;;;;;;;;;;5.10;99.90;;;;;;5093774;28;19928;-67
2021/03/24 00:09:16;;;;;;;;;;;5.10;99.90;;;;;;5093764;28;19924;-67
2021/03/24 00:11:42;;;;;;;;;;;5.20;99.90;;;;;;5094912;28;19928;-67
2021/03/24 00:14:08;;;;;;;;;;;5.10;99.90;;;;;;5093769;28;20285;-67
2021/03/24 00:16:34;;;;;;;;;;;5.20;99.90;;;;;;5094337;28;20385;-67
2021/03/24 00:19:00;;;;;;;;;;;5.20;99.90;;;;;;5094097;28;19924;-67
2021/03/24 00:21:26;;;;;;;;;;;5.10;99.90;;;;;;5094589;28;19931;-68
2021/03/24 00:23:52;;;;;;;;;;;5.10;99.90;;;;;;5094937;28;19932;-67
2021/03/24 00:26:19;;;;;;;;;;;5.00;99.90;;;;;;5093704;28;20546;-68
2021/03/24 00:28:45;;;;;;;;;;;5.00;99.90;;;;;;5094281;28;19929;-66
2021/03/24 00:31:11;;;;;;;;;;;4.90;99.90;;;;;;5093697;28;20432;-67
2021/03/24 00:33:37;;;;;;;;;;;4.90;99.90;;;;;;5093716;28;20308;-67
2021/03/24 00:36:04;;;;;;;;;;;4.90;99.90;;;;;;5093770;28;19946;-68
2021/03/24 00:38:30;;;;;;;;;;;4.90;99.90;;;;;;5093607;28;19927;-67
2021/03/24 00:40:57;;;;;;;;;;;4.80;99.90;;;;;;5094401;28;19931;-69
2021/03/24 00:43:24;;;;;;;;;;;4.80;99.90;;;;;;5094204;28;19965;-66
2021/03/24 00:45:50;;;;;;;;;;;4.80;99.90;;;;;;5094175;28;19924;-68
2021/03/24 00:48:18;;;;;;;;;;;4.70;99.90;;;;;;5094351;28;20350;-68
2021/03/24 00:50:45;;;;;;;;;;;4.70;99.90;;;;;;5094085;28;19927;-68
2021/03/24 00:53:11;;;;;;;;;;;4.70;99.90;;;;;;5092981;28;20545;-67
2021/03/24 00:55:37;;;;;;;;;;;4.70;99.90;;;;;;5092910;28;19932;-67
2021/03/24 00:58:03;;;;;;;;;;;4.70;99.90;;;;;;5092923;28;19928;-67
2021/03/24 01:00:32;;;;;;;;;;;4.70;99.90;;;;;;5093116;28;19924;-67
2021/03/24 01:02:58;;;;;;;;;;;4.70;99.90;;;;;;5092526;28;19951;-67
2021/03/24 01:05:25;;;;;;;;;;;4.70;99.90;;;;;;5093133;28;20420;-68
2021/03/24 01:07:52;;;;;;;;;;;4.70;99.90;;;;;;5093005;28;19927;-67
2021/03/24 01:10:19;;;;;;;;;;;4.70;99.90;;;;;;5092679;28;20183;-67
2021/03/24 01:12:45;;;;;;;;;;;4.70;99.90;;;;;;5093221;28;19931;-67
2021/03/24 01:15:12;;;;;;;;;;;4.70;99.90;;;;;;5091817;28;19928;-67
2021/03/24 01:17:39;;;;;;;;;;;4.70;99.90;;;;;;5093336;28;20293;-67
2021/03/24 01:20:05;;;;;;;;;;;4.70;99.90;;;;;;5093407;28;19928;-67
2021/03/24 01:22:31;;;;;;;;;;;4.80;99.90;;;;;;5092905;28;19931;-68
2021/03/24 01:24:58;;;;;;;;;;;4.80;99.90;;;;;;5091813;28;19932;-68
2021/03/24 01:27:25;;;;;;;;;;;4.80;99.90;;;;;;5091996;28;19931;-67
2021/03/24 01:29:51;;;;;;;;;;;4.80;99.90;;;;;;5092925;28;19924;-67
2021/03/24 01:32:17;;;;;;;;;;;4.70;99.90;;;;;;5093278;28;20339;-67
2021/03/24 01:34:43;;;;;;;;;;;4.70;99.90;;;;;;5092354;28;20684;-67
2021/03/24 01:37:10;;;;;;;;;;;4.70;99.90;;;;;;5093563;28;20269;-69
2021/03/24 01:39:36;;;;;;;;;;;4.70;99.90;;;;;;5093257;28;19924;-69
2021/03/24 01:42:02;;;;;;;;;;;4.70;99.90;;;;;;5092496;28;19931;-69
2021/03/24 01:44:28;;;;;;;;;;;4.60;99.90;;;;;;5093383;28;19989;-67
2021/03/24 01:46:54;;;;;;;;;;;4.60;99.90;;;;;;5091900;28;19924;-67
2021/03/24 01:49:24;;;;;;;;;;;4.60;99.90;;;;;;5092315;28;19935;-67
2021/03/24 01:51:52;;;;;;;;;;;4.60;99.90;;;;;;5092674;28;20611;-69
2021/03/24 01:54:20;;;;;;;;;;;4.60;99.90;;;;;;5092758;28;19928;-68
2021/03/24 01:56:46;;;;;;;;;;;4.60;99.90;;;;;;5091823;28;19977;-67
2021/03/24 01:59:13;;;;;;;;;;;4.60;99.90;;;;;;5091379;28;19949;-67
2021/03/24 02:01:39;;;;;;;;;;;4.60;99.90;;;;;;5092456;28;19924;-67
2021/03/24 02:04:06;;;;;;;;;;;4.60;99.90;;;;;;5092489;28;19927;-66
2021/03/24 02:06:45;;;;;;;;;;;4.60;99.90;;;;;;5092033;28;19925;-67
2021/03/24 02:09:20;;;;;;;;;;;4.60;99.90;;;;;;5091552;28;19924;-69
2021/03/24 02:11:51;;;;;;;;;;;4.60;99.90;;;;;;5092637;28;19969;-67
2021/03/24 02:14:18;;;;;;;;;;;4.60;99.90;;;;;;5091795;28;19924;-68
2021/03/24 02:16:45;;;;;;;;;;;4.60;99.90;;;;;;5091388;28;19931;-67
2021/03/24 02:19:19;;;;;;;;;;;4.60;99.90;;;;;;5092896;28;19931;-66
2021/03/24 02:21:45;;;;;;;;;;;4.60;99.90;;;;;;5092185;28;19985;-68
2021/03/24 02:24:15;;;;;;;;;;;4.50;99.90;;;;;;5092700;28;19931;-67
2021/03/24 02:26:45;;;;;;;;;;;4.50;99.90;;;;;;5092078;28;19939;-68
2021/03/24 02:29:15;;;;;;;;;;;4.50;99.90;;;;;;5092632;28;19924;-67
2021/03/24 02:31:41;;;;;;;;;;;4.50;99.90;;;;;;5092378;28;19955;-69
2021/03/24 02:34:09;;;;;;;;;;;4.60;99.90;;;;;;5090817;28;19924;-69
2021/03/24 02:36:38;;;;;;;;;;;4.60;99.90;;;;;;5092361;28;19931;-67
2021/03/24 02:39:06;;;;;;;;;;;4.50;99.90;;;;;;5092949;28;19993;-67
2021/03/24 02:41:33;;;;;;;;;;;4.50;99.90;;;;;;5092271;28;19924;-66
2021/03/24 02:43:59;;;;;;;;;;;4.50;99.90;;;;;;5092048;28;19935;-67
2021/03/24 02:46:27;;;;;;;;;;;4.50;99.90;;;;;;5092129;28;19924;-68
2021/03/24 02:48:53;;;;;;;;;;;4.40;99.90;;;;;;5091961;28;19924;-68
2021/03/24 02:51:22;;;;;;;;;;;4.40;99.90;;;;;;5091735;28;19925;-67
2021/03/24 02:53:48;;;;;;;;;;;4.40;99.90;;;;;;5092075;28;19924;-68
2021/03/24 02:56:15;;;;;;;;;;;4.40;99.90;;;;;;5092693;28;19924;-66
2021/03/24 02:58:41;;;;;;;;;;;4.40;99.90;;;;;;5092245;28;20030;-67
2021/03/24 03:01:08;;;;;;;;;;;4.30;99.90;;;;;;5091704;28;19932;-67
2021/03/24 03:03:38;;;;;;;;;;;4.30;99.90;;;;;;5091758;28;19977;-67
2021/03/24 03:06:06;;;;;;;;;;;4.30;99.90;;;;;;5091153;28;19975;-68
2021/03/24 03:08:34;;;;;;;;;;;4.30;99.90;;;;;;5091492;28;20396;-68
2021/03/24 03:11:02;;;;;;;;;;;4.30;99.90;;;;;;5091271;28;19924;-68
2021/03/24 03:13:30;;;;;;;;;;;4.30;99.90;;;;;;5091343;28;19928;-65
2021/03/24 03:16:01;;;;;;;;;;;4.30;99.90;;;;;;5091757;28;19928;-65
2021/03/24 03:18:30;;;;;;;;;;;4.30;99.90;;;;;;5091575;28;19924;-66
2021/03/24 03:21:01;;;;;;;;;;;4.30;99.90;;;;;;5093810;28;19928;-67
2021/03/24 03:23:28;;;;;;;;;;;4.30;99.90;;;;;;5094606;28;20384;-67
2021/03/24 03:25:57;;;;;;;;;;;4.30;99.90;;;;;;5095511;28;19927;-68
2021/03/24 03:28:25;;;;;;;;;;;4.30;99.90;;;;;;5094760;28;19924;-67
2021/03/24 03:30:52;;;;;;;;;;;4.30;99.90;;;;;;5095340;28;19931;-67
2021/03/24 03:33:20;;;;;;;;;;;4.30;99.90;;;;;;5095427;28;19924;-68
2021/03/24 03:35:46;;;;;;;;;;;4.30;99.90;;;;;;5094603;28;19978;-64
2021/03/24 03:38:14;;;;;;;;;;;4.20;99.90;;;;;;5095770;28;19924;-66
2021/03/24 03:40:41;;;;;;;;;;;4.20;99.90;;;;;;5095519;28;19925;-66
2021/03/24 03:43:09;;;;;;;;;;;4.20;99.90;;;;;;5095517;28;19924;-66
2021/03/24 03:45:37;;;;;;;;;;;4.20;99.90;;;;;;5094346;28;19951;-68
2021/03/24 03:48:04;;;;;;;;;;;4.20;99.90;;;;;;5095512;28;19928;-66
2021/03/24 03:50:30;;;;;;;;;;;4.10;99.90;;;;;;5095671;28;19924;-66
2021/03/24 03:53:02;;;;;;;;;;;4.10;99.90;;;;;;5095024;28;19969;-65
2021/03/24 03:55:35;;;;;;;;;;;4.10;99.90;;;;;;5094899;28;19935;-66
2021/03/24 03:58:04;;;;;;;;;;;4.10;99.90;;;;;;5095126;28;20362;-66
2021/03/24 04:00:32;;;;;;;;;;;4.10;99.90;;;;;;5095292;28;19935;-66
2021/03/24 04:02:59;;;;;;;;;;;4.10;99.90;;;;;;5094522;28;19928;-67
2021/03/24 04:05:27;;;;;;;;;;;4.10;99.90;;;;;;5093666;28;19924;-67
2021/03/24 04:07:55;;;;;;;;;;;4.10;99.90;;;;;;5095158;28;19931;-67
2021/03/24 04:10:23;;;;;;;;;;;4.00;99.90;;;;;;5094815;28;19931;-66
2021/03/24 04:12:50;;;;;;;;;;;4.00;99.90;;;;;;5094907;28;19924;-67
2021/03/24 04:15:18;;;;;;;;;;;4.00;99.90;;;;;;5094418;28;19924;-65
2021/03/24 04:17:46;;;;;;;;;;;3.90;99.90;;;;;;5094982;28;20373;-66
2021/03/24 04:20:13;;;;;;;;;;;3.80;99.90;;;;;;5093192;28;19931;-66
2021/03/24 04:22:40;;;;;;;;;;;3.80;99.90;;;;;;5094639;28;20388;-66
2021/03/24 04:25:08;;;;;;;;;;;3.70;99.90;;;;;;5094194;28;19924;-68
2021/03/24 04:27:37;;;;;;;;;;;3.60;99.90;;;;;;5093716;28;19924;-66
2021/03/24 04:30:06;;;;;;;;;;;3.60;99.90;;;;;;5094684;28;20392;-65
2021/03/24 04:32:32;;;;;;;;;;;3.50;99.90;;;;;;5093055;28;19931;-67
2021/03/24 04:34:58;;;;;;;;;;;3.50;99.90;;;;;;5093314;28;19975;-67
2021/03/24 04:37:28;;;;;;;;;;;3.50;99.90;;;;;;5093882;28;19924;-67
2021/03/24 04:39:57;;;;;;;;;;;3.50;99.90;;;;;;5093732;28;19947;-68
2021/03/24 04:42:25;;;;;;;;;;;3.50;99.90;;;;;;5093468;28;19958;-66
2021/03/24 04:44:53;;;;;;;;;;;3.50;99.90;;;;;;5093383;28;19931;-67
2021/03/24 04:47:23;;;;;;;;;;;3.40;99.90;;;;;;5094070;28;20377;-66
2021/03/24 04:49:51;;;;;;;;;;;3.40;99.90;;;;;;5094171;28;19928;-66
2021/03/24 04:52:18;;;;;;;;;;;3.50;99.90;;;;;;5093285;28;19924;-66
2021/03/24 04:54:44;;;;;;;;;;;3.50;99.90;;;;;;5093743;28;20301;-66
2021/03/24 04:57:12;;;;;;;;;;;3.40;99.90;;;;;;5093833;28;19924;-69
2021/03/24 04:59:39;;;;;;;;;;;3.40;99.90;;;;;;5094422;28;19935;-66
2021/03/24 05:02:07;;;;;;;;;;;3.40;99.90;;;;;;5093935;28;20074;-66
2021/03/24 05:04:37;;;;;;;;;;;3.30;99.90;;;;;;5094481;28;19947;-67
2021/03/24 05:07:05;;;;;;;;;;;3.30;99.90;;;;;;5093293;28;19926;-67
2021/03/24 05:09:31;;;;;;;;;;;3.30;99.90;;;;;;5094363;28;19959;-69
2021/03/24 05:12:02;;;;;;;;;;;3.30;99.90;;;;;;5093714;28;19931;-67
2021/03/24 05:14:30;;;;;;;;;;;3.40;99.90;;;;;;5093466;28;19936;-67
2021/03/24 05:17:05;;;;;;;;;;;3.40;99.90;;;;;;5087475;28;19929;-67
2021/03/24 05:19:32;;;;;;;;;;;3.40;99.90;;;;;;5073795;28;19947;-69
2021/03/24 05:22:17;;;;;;;;;;;3.40;99.90;;;;;;5081411;28;19928;-67
2021/03/24 05:24:44;;;;;;;;;;;3.40;99.90;;;;;;5093749;28;19924;-67
2021/03/24 05:27:15;;;;;;;;;;;3.40;99.90;;;;;;5093439;28;19931;-67
2021/03/24 05:29:43;;;;;;;;;;;3.40;99.90;;;;;;5093543;28;19928;-66
2021/03/24 05:32:14;;;;;;;;;;;3.40;99.90;;;;;;5093342;28;19932;-66
2021/03/24 05:34:40;;;;;;;;;;;3.40;99.90;;;;;;5093775;28;19924;-66
2021/03/24 05:37:07;;;;;;;;;;;3.40;99.90;;;;;;5092874;28;20005;-68
2021/03/24 05:39:35;;;;;;;;;;;3.40;99.90;;;;;;5093030;28;20320;-67
2021/03/24 05:42:11;;;;;;;;;;;3.50;99.90;;;;;;5093167;28;20413;-69
2021/03/24 05:44:55;;;;;;;;;;;3.50;99.90;;;;;;5093059;28;19928;-66
2021/03/24 05:47:51;;;;;;;;;;;3.50;99.90;;;;;;5093297;28;19924;-66
2021/03/24 05:50:41;;;;;;;;;;;3.50;99.90;;;;;;5010685;28;19926;-68
2021/03/24 05:53:14;;;;;;;;;;;3.50;99.90;;;;;;5064940;28;20394;-66
2021/03/24 05:55:45;;;;;;;;;;;3.50;99.90;;;;;;5092939;28;19924;-69
2021/03/24 05:58:24;;;;;;;;;;;3.50;99.90;;;;;;5093465;28;19924;-66
2021/03/24 06:00:55;;;;;;;;;;;3.60;99.90;;;;;;5092799;28;20365;-66
2021/03/24 06:03:27;;;;;;;;;;;3.60;99.90;;;;;;5092782;28;20312;-66
2021/03/24 06:06:11;;;;;;;;;;;3.70;99.90;;;;;;5092536;28;20385;-66
2021/03/24 06:09:01;;;;;;;;;;;3.70;99.90;;;;;;5092778;28;19931;-65
2021/03/24 06:11:45;;;;;;;;;;;3.80;99.90;;;;;;5092899;28;19924;-67
2021/03/24 06:14:23;;;;;;;;;;;3.80;99.90;;;;;;5052037;28;19924;-66
2021/03/24 06:16:55;;;;;;;;;;;3.90;99.90;;;;;;5092255;28;19924;-67
2021/03/24 06:19:26;;;;;;;;;;;4.00;99.90;;;;;;5092784;28;19924;-66
2021/03/24 06:21:57;;;;;;;;;;;4.10;99.90;;;;;;5092555;28;19969;-65
2021/03/24 06:24:27;;;;;;;;;;;4.20;99.90;;;;;;5085566;28;21300;-67
2021/03/24 06:27:08;;;;;;;;;;;4.30;99.90;;;;;;5091735;28;19937;-66
2021/03/24 06:29:55;;;;;;;;;;;4.30;99.90;;;;;;5092800;28;19939;-66
2021/03/24 06:32:39;;;;;;;;;;;4.50;99.90;;;;;;5086582;28;20288;-63
2021/03/24 06:35:17;;;;;;;;;;;4.60;99.90;;;;;;5092200;28;19924;-63
2021/03/24 06:37:50;;;;;;;;;;;4.90;99.90;;;;;;5092009;28;19993;-65
2021/03/24 06:40:28;;;;;;;;;;;5.20;99.90;;;;;;5092202;28;19995;-64
2021/03/24 06:43:13;;;;;;;;;;;5.50;99.90;;;;;;5092047;28;19931;-64
2021/03/24 06:45:43;;;;;;;;;;;5.70;99.90;;;;;;5091894;28;19951;-65
2021/03/24 06:48:16;;;;;;;;;;;6.00;99.90;;;;;;5092468;28;20015;-63
2021/03/24 06:51:12;;;;;;;;;;;6.30;99.90;;;;;;5091802;28;19924;-64
2021/03/24 06:53:51;;;;;;;;;;;6.50;99.90;;;;;;5092277;28;19928;-67
2021/03/24 06:56:25;;;;;;;;;;;6.50;99.90;;;;;;5091317;28;19985;-66
2021/03/24 06:59:06;;;;;;;;;;;6.70;99.90;;;;;;5092120;28;19946;-64
2021/03/24 07:01:42;;;;;;;;;;;6.80;99.90;;;;;;5091646;28;19924;-64
2021/03/24 07:04:31;;;;;;;;;;;6.90;99.90;;;;;;5091817;28;19973;-65
2021/03/24 07:07:07;;;;;;;;;;;7.00;99.90;;;;;;5091427;28;19931;-67
2021/03/24 07:09:38;;;;;;;;;;;7.20;99.90;;;;;;5092117;28;20395;-70
2021/03/24 07:12:09;;;;;;;;;;;7.20;99.90;;;;;;5091871;28;19928;-67
2021/03/24 07:14:53;;;;;;;;;;;7.20;99.90;;;;;;5091577;28;19924;-67
2021/03/24 07:17:36;;;;;;;;;;;7.20;99.90;;;;;;5092007;28;20015;-67
2021/03/24 07:20:15;;;;;;;;;;;7.10;99.90;;;;;;5091541;28;19928;-68
2021/03/24 07:22:49;;;;;;;;;;;7.10;99.90;;;;;;5091996;28;19936;-68
2021/03/24 07:25:22;;;;;;;;;;;7.10;99.90;;;;;;5091469;28;19931;-65
2021/03/24 07:27:56;;;;;;;;;;;7.20;99.90;;;;;;5091815;28;20320;-65
2021/03/24 07:30:25;;;;;;;;;;;7.20;99.90;;;;;;5091422;28;19931;-70
2021/03/24 07:32:54;;;;;;;;;;;7.30;99.90;;;;;;5091582;28;19924;-68
2021/03/24 07:35:44;;;;;;;;;;;7.40;99.90;;;;;;5091672;28;19924;-67
2021/03/24 07:38:25;;;;;;;;;;;7.40;99.90;;;;;;5070966;28;19928;-66
2021/03/24 07:41:05;;;;;;;;;;;7.60;99.90;;;;;;5073960;28;19928;-67
2021/03/24 07:43:42;;;;;;;;;;;7.60;99.90;;;;;;5046969;28;19928;-68
2021/03/24 07:46:12;;;;;;;;;;;7.70;99.90;;;;;;5091278;28;19924;-64
2021/03/24 07:48:51;;;;;;;;;;;7.70;99.90;;;;;;5091519;28;19928;-65
2021/03/24 07:51:22;;;;;;;;;;;7.80;99.90;;;;;;5091361;28;19924;-66
2021/03/24 07:53:53;;;;;;;;;;;7.90;99.90;;;;;;5090742;28;19933;-66
2021/03/24 07:56:25;;;;;;;;;;;8.10;99.90;;;;;;5091218;28;19924;-64
2021/03/24 07:59:05;;;;;;;;;;;8.20;99.90;;;;;;5091673;28;19982;-66
2021/03/24 08:01:37;;;;;;;;;;;8.30;99.90;;;;;;5091282;28;19924;-70
2021/03/24 08:04:12;;;;;;;;;;;8.40;99.90;;;;;;5091186;28;19928;-68
2021/03/24 08:06:47;;;;;;;;;;;8.50;99.90;;;;;;5092824;28;19928;-65
2021/03/24 08:09:20;;;;;;;;;;;8.60;99.90;;;;;;5095008;28;19924;-68
2021/03/24 08:11:51;;;;;;;;;;;8.80;99.90;;;;;;5094618;28;19928;-68
2021/03/24 08:14:30;;;;;;;;;;;8.70;99.90;;;;;;5094480;28;19928;-66
2021/03/24 08:17:01;;;;;;;;;;;8.80;99.90;;;;;;5094384;28;20335;-65
2021/03/24 08:19:46;;;;;;;;;;;9.00;99.90;;;;;;5094756;28;19931;-66
2021/03/24 08:22:17;;;;;;;;;;;9.20;99.90;;;;;;5094737;28;19978;-69
2021/03/24 08:24:50;;;;;;;;;;;9.40;99.90;;;;;;5094181;28;19928;-70
2021/03/24 08:27:22;;;;;;;;;;;9.60;99.90;;;;;;5094693;28;19935;-71
2021/03/24 08:29:54;;;;;;;;;;;9.70;99.90;;;;;;5095121;28;19931;-72
2021/03/24 08:32:41;;;;;;;;;;;9.80;99.90;;;;;;5095443;28;19936;-69
2021/03/24 08:35:23;;;;;;;;;;;9.90;99.90;;;;;;5087148;28;19924;-70
2021/03/24 08:38:01;;;;;;;;;;;10.00;99.90;;;;;;5095477;28;19924;-69
2021/03/24 08:40:37;;;;;;;;;;;10.10;99.90;;;;;;5094354;28;19924;-68
2021/03/24 08:43:27;;;;;;;;;;;10.30;99.90;;;;;;5094189;28;19924;-71
2021/03/24 08:45:54;;;;;;;;;;;10.40;99.90;;;;;;5093713;28;19925;-71
2021/03/24 08:48:27;;;;;;;;;;;10.50;99.90;;;;;;5092535;28;19950;-71
2021/03/24 08:50:55;;;;;;;;;;;10.60;99.90;;;;;;5094141;28;20347;-70
2021/03/24 08:53:26;;;;;;;;;;;10.70;99.90;;;;;;5093870;28;20027;-70
2021/03/24 08:55:54;;;;;;;;;;;10.70;99.90;;;;;;5093469;28;19925;-69
2021/03/24 08:58:22;;;;;;;;;;;10.70;99.90;;;;;;5093673;28;19931;-70
2021/03/24 09:01:16;;;;;;;;;;;10.90;99.90;;;;;;5093814;28;19954;-66
2021/03/24 09:03:50;;;;;;;;;;;11.00;99.90;;;;;;5093056;28;20646;-69
2021/03/24 09:06:22;;;;;;;;;;;11.20;99.90;;;;;;5092439;28;19985;-65
2021/03/24 09:08:51;;;;;;;;;;;11.30;99.90;;;;;;5093516;28;20281;-66
2021/03/24 09:11:22;;;;;;;;;;;11.20;99.90;;;;;;5093669;28;19924;-65
2021/03/24 09:13:53;;;;;;;;;;;11.30;99.90;;;;;;5093459;28;19928;-66
2021/03/24 09:16:53;;;;;;;;;;;11.30;99.90;;;;;;5093243;28;20335;-66
2021/03/24 09:19:27;;;;;;;;;;;11.30;99.90;;;;;;5093063;28;19924;-73
2021/03/24 09:22:00;;;;;;;;;;;11.50;99.90;;;;;;5093539;28;19925;-69
2021/03/24 09:24:54;;;;;;;;;;;11.70;99.90;;;;;;5093269;28;19924;-69
2021/03/24 09:27:34;;;;;;;;;;;11.80;99.90;;;;;;5092833;28;19924;-69
2021/03/24 09:30:18;;;;;;;;;;;11.80;99.90;;;;;;5093004;28;20431;-67
2021/03/24 09:32:48;;;;;;;;;;;11.60;99.90;;;;;;5093655;28;20396;-67
2021/03/24 09:35:26;;;;;;;;;;;11.70;99.90;;;;;;5092808;28;19932;-68
2021/03/24 09:37:58;;;;;;;;;;;12.00;99.90;;;;;;5093291;28;19924;-69
2021/03/24 09:40:28;;;;;;;;;;;12.10;99.90;;;;;;5093317;28;19924;-70
2021/03/24 09:42:55;;;;;;;;;;;12.20;99.90;;;;;;5092970;28;19924;-68
2021/03/24 09:45:22;;;;;;;;;;;12.30;99.90;;;;;;5093110;28;19959;-68
2021/03/24 09:47:50;;;;;;;;;;;12.30;99.90;;;;;;5092595;28;19935;-69
2021/03/24 09:50:25;;;;;;;;;;;12.30;99.90;;;;;;5092403;28;19924;-70
2021/03/24 09:52:52;;;;;;;;;;;12.40;99.90;;;;;;5092626;28;20346;-69
2021/03/24 09:55:23;;;;;;;;;;;12.50;99.90;;;;;;5092658;28;19928;-66
2021/03/24 09:57:57;;;;;;;;;;;12.40;99.90;;;;;;5092384;28;19935;-65
2021/03/24 10:00:24;;;;;;;;;;;12.50;99.90;;;;;;5092758;28;20403;-65
2021/03/24 10:02:54;;;;;;;;;;;12.60;99.90;;;;;;5092529;28;19928;-66
2021/03/24 10:05:23;;;;;;;;;;;12.70;99.90;;;;;;5092269;28;19924;-68
2021/03/24 10:07:58;;;;;;;;;;;12.60;99.90;;;;;;5092659;28;19924;-68
2021/03/24 10:10:28;;;;;;;;;;;12.50;99.90;;;;;;5093064;28;19974;-70
2021/03/24 10:12:57;;;;;;;;;;;12.70;99.90;;;;;;5093080;28;19924;-70
2021/03/24 10:15:28;;;;;;;;;;;12.80;99.90;;;;;;5091860;28;20026;-68
2021/03/24 10:17:57;;;;;;;;;;;12.90;99.90;;;;;;5092289;28;20346;-71
2021/03/24 10:20:26;;;;;;;;;;;12.90;99.90;;;;;;5092569;28;19925;-70
2021/03/24 10:22:53;;;;;;;;;;;12.80;99.90;;;;;;5092422;28;19971;-68
2021/03/24 10:25:22;;;;;;;;;;;12.90;99.90;;;;;;5091852;28;19985;-69
2021/03/24 10:27:50;;;;;;;;;;;13.00;99.90;;;;;;5091440;28;20078;-64
2021/03/24 10:30:31;;;;;;;;;;;13.00;99.90;;;;;;5092358;28;19932;-64
2021/03/24 10:33:01;;;;;;;;;;;12.90;99.90;;;;;;5092204;28;19924;-65
2021/03/24 10:35:30;;;;;;;;;;;13.10;99.90;;;;;;5091838;28;19924;-68
2021/03/24 10:37:57;;;;;;;;;;;13.20;99.90;;;;;;5091716;28;19931;-67
2021/03/24 10:40:25;;;;;;;;;;;13.40;99.90;;;;;;5092324;28;19928;-68
2021/03/24 10:42:54;;;;;;;;;;;13.40;99.90;;;;;;5092632;28;20398;-69
2021/03/24 10:45:22;;;;;;;;;;;13.30;99.90;;;;;;5091580;28;19924;-70
2021/03/24 10:47:51;;;;;;;;;;;13.30;99.90;;;;;;5091555;28;19928;-66
2021/03/24 10:50:23;;;;;;;;;;;13.30;99.90;;;;;;5091956;28;19951;-66
2021/03/24 10:53:04;;;;;;;;;;;13.30;99.90;;;;;;5091474;28;19939;-69
2021/03/24 10:55:31;;;;;;;;;;;13.40;99.90;;;;;;5091682;28;19924;-70
2021/03/24 10:58:03;;;;;;;;;;;13.50;99.90;;;;;;5092055;28;20276;-70
2021/03/24 11:00:33;;;;;;;;;;;13.60;99.90;;;;;;5092136;28;19924;-70
2021/03/24 11:03:05;;;;;;;;;;;13.60;99.90;;;;;;5091884;28;19965;-69
2021/03/24 11:05:36;;;;;;;;;;;13.80;99.90;;;;;;5091897;28;19932;-70
2021/03/24 11:08:08;;;;;;;;;;;13.90;99.90;;;;;;5092086;28;19935;-70
2021/03/24 11:10:38;;;;;;;;;;;14.10;99.90;;;;;;5091871;28;19924;-69
2021/03/24 11:13:09;;;;;;;;;;;14.00;99.90;;;;;;5091791;28;19924;-70
2021/03/24 11:15:54;;;;;;;;;;;14.20;99.90;;;;;;5090903;28;19931;-70
2021/03/24 11:18:24;;;;;;;;;;;14.20;99.90;;;;;;5091475;28;19924;-70
2021/03/24 11:20:59;;;;;;;;;;;14.00;99.90;;;;;;5091576;28;20296;-71
2021/03/24 11:23:26;;;;;;;;;;;14.00;99.90;;;;;;5091887;28;19924;-70
2021/03/24 11:25:56;;;;;;;;;;;13.90;99.90;;;;;;5090567;28;20385;-68
2021/03/24 11:28:26;;;;;;;;;;;14.00;99.90;;;;;;5091274;28;19924;-71
2021/03/24 11:31:00;;;;;;;;;;;14.00;99.90;;;;;;5091731;28;19928;-71
2021/03/24 11:33:31;;;;;;;;;;;14.00;99.90;;;;;;5091606;28;19924;-70
2021/03/24 11:35:59;;;;;;;;;;;14.20;99.90;;;;;;5090969;28;20296;-70
2021/03/24 11:38:30;;;;;;;;;;;14.30;99.90;;;;;;5091355;28;20297;-70
2021/03/24 11:41:02;;;;;;;;;;;14.20;99.90;;;;;;5092565;28;19937;-68
2021/03/24 11:43:30;;;;;;;;;;;14.10;99.90;;;;;;5095500;28;19974;-68
2021/03/24 11:46:07;;;;;;;;;;;14.30;99.90;;;;;;5094536;28;19970;-68
2021/03/24 11:48:38;;;;;;;;;;;14.40;99.90;;;;;;5095259;28;19924;-69
2021/03/24 11:51:09;;;;;;;;;;;14.50;99.90;;;;;;5095083;28;20007;-71
2021/03/24 11:53:40;;;;;;;;;;;14.50;99.90;;;;;;5095334;28;19924;-71
2021/03/24 11:56:13;;;;;;;;;;;14.50;99.90;;;;;;5094410;28;19935;-69
2021/03/24 11:59:03;;;;;;;;;;;14.70;99.90;;;;;;5095102;28;19931;-74
2021/03/24 12:01:50;;;;;;;;;;;14.70;99.90;;;;;;5094946;28;19971;-74
2021/03/24 12:04:36;;;;;;;;;;;14.80;99.90;;;;;;5094301;28;19936;-69
2021/03/24 12:07:08;;;;;;;;;;;14.80;99.90;;;;;;5094396;28;19928;-67
2021/03/24 12:09:36;;;;;;;;;;;14.80;99.90;;;;;;5094570;28;19924;-67
2021/03/24 12:12:04;;;;;;;;;;;14.80;99.90;;;;;;5093825;28;19931;-68
2021/03/24 12:14:31;;;;;;;;;;;14.80;99.90;;;;;;5094764;28;19936;-69
2021/03/24 12:16:59;;;;;;;;;;;14.80;99.90;;;;;;5095037;28;19977;-67
2021/03/24 12:19:29;;;;;;;;;;;14.70;99.90;;;;;;5085315;28;19924;-67
2021/03/24 12:21:56;;;;;;;;;;;14.80;99.90;;;;;;5074853;28;19924;-70
2021/03/24 12:24:27;;;;;;;;;;;15.10;99.90;;;;;;5074917;28;19928;-70
2021/03/24 12:26:53;;;;;;;;;;;15.20;99.90;;;;;;5074171;28;19925;-70
2021/03/24 12:29:21;;;;;;;;;;;14.90;99.90;;;;;;5082393;28;20346;-70
2021/03/24 12:31:49;;;;;;;;;;;15.00;99.90;;;;;;5094538;28;19931;-70
2021/03/24 12:34:17;;;;;;;;;;;15.30;99.90;;;;;;5094981;28;20296;-70
2021/03/24 12:36:51;;;;;;;;;;;15.40;99.90;;;;;;5092145;28;19958;-71
2021/03/24 12:39:25;;;;;;;;;;;15.30;99.90;;;;;;5094642;28;20537;-71
2021/03/24 12:41:51;;;;;;;;;;;15.20;99.90;;;;;;5094409;28;19928;-72
2021/03/24 12:44:19;;;;;;;;;;;15.20;99.90;;;;;;5094528;28;20312;-72
2021/03/24 12:46:49;;;;;;;;;;;15.10;99.90;;;;;;5094306;28;19924;-72
2021/03/24 12:52:39;;;;;;;;;;;15.40;99.90;;;;;;5096268;28;20315;-73
2021/03/24 12:55:13;;;;;;;;;;;15.40;99.90;;;;;;5094975;28;20018;-73
2021/03/24 12:57:43;;;;;;;;;;;15.20;99.90;;;;;;5093874;28;20396;-72
2021/03/24 13:00:21;;;;;;;;;;;15.00;99.90;;;;;;5093761;28;20092;-71
2021/03/24 13:03:01;;;;;;;;;;;14.90;99.90;;;;;;5094403;28;19978;-69
2021/03/24 13:05:34;;;;;;;;;;;14.90;99.90;;;;;;5093672;28;19947;-69
2021/03/24 13:08:06;;;;;;;;;;;14.90;99.90;;;;;;5093570;28;19923;-69
2021/03/24 13:10:44;;;;;;;;;;;15.20;99.90;;;;;;5093390;28;19928;-68
2021/03/24 13:13:15;;;;;;;;;;;15.40;99.90;;;;;;5093707;28;20024;-69
2021/03/24 13:15:48;;;;;;;;;;;15.50;99.90;;;;;;5093474;28;19924;-67
2021/03/24 13:18:21;;;;;;;;;;;15.50;99.90;;;;;;5093632;28;19924;-69
2021/03/24 13:21:13;;;;;;;;;;;15.60;99.90;;;;;;5093359;28;19928;-70
2021/03/24 13:23:45;;;;;;;;;;;15.70;99.90;;;;;;5093405;28;19974;-70
2021/03/24 13:26:16;;;;;;;;;;;16.00;99.90;;;;;;5093131;28;19924;-72
2021/03/24 13:28:45;;;;;;;;;;;16.00;99.90;;;;;;5093653;28;19924;-70
2021/03/24 13:31:13;;;;;;;;;;;15.90;99.90;;;;;;5092801;28;19977;-71
2021/03/24 13:33:51;;;;;;;;;;;15.90;99.90;;;;;;5093279;28;19986;-68
2021/03/24 13:36:19;;;;;;;;;;;15.90;99.90;;;;;;5092442;28;19930;-68
2021/03/24 13:38:50;;;;;;;;;;;15.90;99.90;;;;;;5093376;28;19978;-70
2021/03/24 13:41:16;;;;;;;;;;;15.80;99.90;;;;;;5092943;28;19924;-69
2021/03/24 13:43:47;;;;;;;;;;;15.70;99.90;;;;;;5093155;28;19924;-70
2021/03/24 13:46:15;;;;;;;;;;;15.50;99.90;;;;;;5092784;28;19951;-70
2021/03/24 13:48:44;;;;;;;;;;;15.50;99.90;;;;;;5092593;28;20411;-74
2021/03/24 13:51:14;;;;;;;;;;;15.50;99.90;;;;;;5093109;28;19947;-71
2021/03/24 13:53:44;;;;;;;;;;;15.60;99.90;;;;;;5092910;28;19925;-71
2021/03/24 13:56:19;;;;;;;;;;;15.50;99.90;;;;;;5092030;28;20373;-69
2021/03/24 13:59:00;;;;;;;;;;;15.50;99.90;;;;;;5092570;28;20436;-69
2021/03/24 14:01:41;;;;;;;;;;;15.60;99.90;;;;;;5092682;28;19935;-72
2021/03/24 14:04:13;;;;;;;;;;;15.70;99.90;;;;;;5089309;28;19928;-69
2021/03/24 14:06:49;;;;;;;;;;;16.00;99.90;;;;;;5091976;28;20392;-70
2021/03/24 14:09:18;;;;;;;;;;;16.20;99.90;;;;;;5093080;28;19954;-69
2021/03/24 14:12:02;;;;;;;;;;;16.20;99.90;;;;;;5092763;28;19924;-69
2021/03/24 14:14:33;;;;;;;;;;;16.10;99.90;;;;;;5092542;28;19924;-69
2021/03/24 14:17:01;;;;;;;;;;;16.10;99.90;;;;;;5091608;28;19975;-69
2021/03/24 14:19:33;;;;;;;;;;;16.00;99.90;;;;;;5092950;28;19930;-68
2021/03/24 14:22:03;;;;;;;;;;;15.90;99.90;;;;;;5093701;28;20604;-69
2021/03/24 14:24:41;;;;;;;;;;;15.90;99.90;;;;;;5094775;28;20384;-69
2021/03/24 14:27:14;;;;;;;;;;;15.80;99.90;;;;;;5093302;28;20395;-67
2021/03/24 14:29:45;;;;;;;;;;;15.80;99.90;;;;;;5093166;28;19942;-67
2021/03/24 14:32:19;;;;;;;;;;;15.90;99.90;;;;;;5096958;28;19924;-67
2021/03/24 14:34:54;;;;;;;;;;;16.00;99.90;;;;;;5098131;28;19970;-67
2021/03/24 14:37:35;;;;;;;;;;;16.00;99.90;;;;;;5093042;28;19924;-68
2021/03/24 14:40:04;;;;;;;;;;;16.00;99.90;;;;;;5091736;28;19924;-68
2021/03/24 14:42:35;;;;;;;;;;;16.10;99.90;;;;;;5093844;28;19924;-72
2021/03/24 14:45:34;;;;;;;;;;;16.10;99.90;;;;;;5092997;28;19946;-71
2021/03/24 14:48:18;;;;;;;;;;;16.10;99.90;;;;;;5009670;28;19964;-69
2021/03/24 14:50:51;;;;;;;;;;;16.00;99.90;;;;;;5009841;28;19929;-69
2021/03/24 14:53:29;;;;;;;;;;;15.90;99.90;;;;;;5059514;28;19932;-69